Time;durP1;ratioP1;P1;durP2;ratioP2;P2;SDS_P1;SDS_P2;PMS_P1;PMS_P2;Temp;Humidity;BMP_temperature;BMP_pressure;BME280_temperature;BME280_humidity;BME280_pressure;Samples;Min_cycle;Max_cycle;Signal;HPM_P1;HPM_P2
2022/08/29 00:00:53;;;;;;;7.68;2.00;;;;;;;14.23;81.37;101965.06;2088938;28;29661;-78
2022/08/29 00:01:55;;;;;;;5.60;1.90;;;;;;;14.25;81.12;101965.03;2088679;28;24928;-78
2022/08/29 00:02:58;;;;;;;6.07;1.75;;;;;;;14.27;81.40;101968.56;2087507;28;41798;-78
2022/08/29 00:04:01;;;;;;;6.05;1.88;;;;;;;14.28;81.32;101967.63;2088770;28;20156;-78
2022/08/29 00:05:06;;;;;;;6.47;1.80;;;;;;;14.29;81.07;101967.59;2088333;28;30605;-78
2022/08/29 00:06:09;;;;;;;8.20;1.77;;;;;;;14.32;81.62;101963.97;2087793;28;29674;-78
2022/08/29 00:07:11;;;;;;;8.65;1.67;;;;;;;14.35;81.52;101968.41;2087774;28;22298;-78
2022/08/29 00:08:13;;;;;;;5.20;1.40;;;;;;;14.35;81.13;101960.31;2088086;28;36766;-78
2022/08/29 00:09:14;;;;;;;7.88;2.13;;;;;;;14.36;81.29;101964.78;2087451;28;34553;-78
2022/08/29 00:10:17;;;;;;;5.38;1.48;;;;;;;14.37;81.49;101967.44;2088025;28;22222;-78
2022/08/29 00:11:20;;;;;;;8.43;1.88;;;;;;;14.38;81.80;101968.34;2088060;28;33514;-78
2022/08/29 00:12:21;;;;;;;11.65;2.65;;;;;;;14.40;81.60;101961.97;2088009;28;28647;-79
2022/08/29 00:13:23;;;;;;;7.25;1.92;;;;;;;14.41;82.03;101953.00;2088058;28;29440;-79
2022/08/29 00:14:25;;;;;;;9.00;1.85;;;;;;;14.41;81.72;101955.69;2088231;28;26352;-79
2022/08/29 00:15:27;;;;;;;6.10;2.00;;;;;;;14.42;81.40;101954.75;2088138;28;29814;-79
2022/08/29 00:16:29;;;;;;;9.32;2.28;;;;;;;14.43;81.84;101951.16;2088722;28;20112;-79
2022/08/29 00:17:31;;;;;;;6.43;2.15;;;;;;;14.45;81.77;101949.28;2087493;28;28489;-79
2022/08/29 00:18:33;;;;;;;7.22;2.00;;;;;;;14.45;81.96;101949.28;2079189;28;31105;-78
2022/08/29 00:19:34;;;;;;;6.35;2.25;;;;;;;14.46;81.77;101952.88;2079406;28;36660;-79
2022/08/29 00:20:40;;;;;;;8.20;1.80;;;;;;;14.46;81.83;101951.09;2080296;28;20026;-79
2022/08/29 00:21:41;;;;;;;9.75;2.00;;;;;;;14.49;82.19;101947.41;2080359;28;20159;-79
2022/08/29 00:22:43;;;;;;;6.00;1.67;;;;;;;14.48;81.68;101943.84;2087536;28;30920;-77
2022/08/29 00:23:45;;;;;;;8.10;1.80;;;;;;;14.48;82.04;101941.16;2088108;28;41107;-79
2022/08/29 00:24:48;;;;;;;7.55;1.77;;;;;;;14.49;82.00;101945.59;2088734;28;20034;-78
2022/08/29 00:25:57;;;;;;;9.93;2.22;;;;;;;14.49;82.12;101945.59;2088687;28;20096;-79
2022/08/29 00:27:00;;;;;;;7.03;2.00;;;;;;;14.47;82.20;101947.44;2087916;28;40609;-78
2022/08/29 00:28:03;;;;;;;7.00;2.17;;;;;;;14.47;82.24;101939.38;2087545;28;31162;-78
2022/08/29 00:29:05;;;;;;;9.95;2.20;;;;;;;14.48;82.54;101946.53;2088433;28;20791;-79
2022/08/29 00:30:10;;;;;;;5.88;1.70;;;;;;;14.48;82.80;101948.31;2087420;28;36389;-79
2022/08/29 00:31:12;;;;;;;5.05;1.88;;;;;;;14.45;82.65;101943.91;2086731;28;34889;-79
2022/08/29 00:32:14;;;;;;;8.35;2.30;;;;;;;14.43;82.63;101953.84;2087559;28;32334;-79
2022/08/29 00:33:16;;;;;;;6.97;1.90;;;;;;;14.42;83.14;101953.88;2087553;28;26725;-79
2022/08/29 00:34:18;;;;;;;7.70;2.10;;;;;;;14.37;83.34;101956.66;2087477;28;30697;-79
2022/08/29 00:35:28;;;;;;;5.80;2.13;;;;;;;14.33;82.97;101963.91;2088092;28;31434;-79
2022/08/29 00:36:29;;;;;;;6.75;1.70;;;;;;;14.32;84.00;101953.19;2095700;28;41221;-79
2022/08/29 00:37:32;;;;;;;7.53;2.17;;;;;;;14.25;83.71;101955.13;2095167;28;35299;-79
2022/08/29 00:38:35;;;;;;;9.70;1.92;;;;;;;14.23;83.78;101961.47;2088194;28;31973;-79
2022/08/29 00:39:39;;;;;;;6.30;1.90;;;;;;;14.17;83.70;101961.59;2088053;28;20851;-78
2022/08/29 00:40:54;;;;;;;9.48;2.10;;;;;;;14.15;84.06;101966.16;2087109;28;39123;-79
2022/08/29 00:41:59;;;;;;;5.75;1.52;;;;;;;14.12;84.74;101959.91;2088326;28;26318;-78
2022/08/29 00:43:03;;;;;;;6.28;1.80;;;;;;;14.12;85.21;101959.91;2087733;28;33705;-78
2022/08/29 00:44:07;;;;;;;6.07;1.83;;;;;;;14.09;84.81;101957.28;2087798;28;20076;-78
2022/08/29 00:45:11;;;;;;;9.63;2.25;;;;;;;14.08;85.04;101963.56;2088095;28;23489;-78
2022/08/29 00:46:52;;;;;;;8.68;2.00;;;;;;;14.06;85.29;101961.84;2095380;28;36455;-78
2022/08/29 00:48:07;;;;;;;8.10;2.45;;;;;;;14.04;86.34;101955.59;2088228;28;24968;-78
2022/08/29 00:49:27;;;;;;;12.55;2.67;;;;;;;14.02;85.77;101955.63;2093126;28;29994;-79
2022/08/29 00:50:59;;;;;;;6.72;2.33;;;;;;;13.99;86.56;101955.69;2093437;28;32167;-78
2022/08/29 00:52:18;;;;;;;9.50;2.00;;;;;;;13.93;86.01;101956.69;2088529;28;20096;-79
2022/08/29 00:53:32;;;;;;;7.15;2.30;;;;;;;13.91;86.21;101960.34;2088327;28;28297;-78
2022/08/29 00:54:36;;;;;;;6.20;2.03;;;;;;;13.88;86.28;101957.72;2088192;28;20046;-79
2022/08/29 00:55:39;;;;;;;6.00;2.25;;;;;;;13.85;86.43;101952.38;2088570;28;36582;-79
2022/08/29 00:56:45;;;;;;;8.55;2.08;;;;;;;13.82;86.49;101947.06;2095079;28;24603;-79
2022/08/29 00:57:55;;;;;;;7.28;2.13;;;;;;;13.80;86.52;101957.88;2095848;28;20128;-79
2022/08/29 00:59:06;;;;;;;6.00;1.52;;;;;;;13.77;86.98;101948.97;2093408;28;37794;-80
2022/08/29 01:00:10;;;;;;;9.13;2.05;;;;;;;13.78;87.38;101961.50;2081250;28;40247;-79
2022/08/29 01:01:13;;;;;;;6.32;2.03;;;;;;;13.74;87.48;101952.59;2087164;28;31982;-79
2022/08/29 01:02:14;;;;;;;4.90;2.20;;;;;;;13.72;87.84;101958.00;2086841;28;42849;-79
2022/08/29 01:03:16;;;;;;;8.32;2.20;;;;;;;13.70;87.94;101949.09;2089165;28;28688;-79
2022/08/29 01:04:18;;;;;;;5.15;1.95;;;;;;;13.70;88.21;101956.28;2090075;28;20123;-79
2022/08/29 01:05:25;;;;;;;7.10;1.83;;;;;;;13.68;88.13;101945.53;2089770;28;29719;-79
2022/08/29 01:06:28;;;;;;;4.45;1.80;;;;;;;13.68;88.64;101952.72;2089359;28;27643;-79
2022/08/29 01:07:29;;;;;;;8.32;2.13;;;;;;;13.66;88.40;101958.16;2088688;28;35864;-79
2022/08/29 01:08:31;;;;;;;7.82;1.70;;;;;;;13.63;88.99;101947.44;2088695;28;29698;-79
2022/08/29 01:09:36;;;;;;;4.93;1.95;;;;;;;13.64;88.74;101951.00;2089928;28;20072;-79
2022/08/29 01:12:14;;;;;;;7.28;2.25;;;;;;;13.61;89.14;101954.66;2089283;28;26583;-79
2022/08/29 01:13:16;;;;;;;6.07;1.92;;;;;;;13.59;89.31;101953.81;2088842;28;41537;-79
2022/08/29 01:14:21;;;;;;;5.60;2.03;;;;;;;13.58;89.56;101953.81;2089510;28;35256;-79
2022/08/29 01:15:25;;;;;;;9.85;2.10;;;;;;;13.55;89.27;101952.09;2090252;28;20366;-79
2022/08/29 01:16:28;;;;;;;8.55;2.05;;;;;;;13.53;89.53;101951.22;2088576;28;31755;-79
2022/08/29 01:17:41;;;;;;;8.13;2.35;;;;;;;13.51;89.83;101953.03;2089789;28;20745;-79
2022/08/29 01:18:46;;;;;;;8.80;2.38;;;;;;;13.48;90.71;101958.50;2095038;28;31482;-79
2022/08/29 01:19:54;;;;;;;6.82;2.08;;;;;;;13.47;90.93;101960.28;2087921;28;44617;-79
2022/08/29 01:21:05;;;;;;;8.32;1.90;;;;;;;13.43;90.54;101961.25;2089511;28;26852;-79
2022/08/29 01:22:28;;;;;;;7.50;2.33;;;;;;;13.40;90.75;101963.13;2088721;28;33555;-79
2022/08/29 01:23:53;;;;;;;6.97;2.45;;;;;;;13.36;91.13;101970.38;2090030;28;20148;-78
2022/08/29 01:24:57;;;;;;;7.40;2.40;;;;;;;13.32;91.08;101968.66;2088572;28;28914;-79
2022/08/29 01:26:01;;;;;;;5.63;2.00;;;;;;;13.28;90.92;101972.25;2082477;28;36702;-79
2022/08/29 01:27:02;;;;;;;9.80;2.72;;;;;;;13.27;91.22;101970.50;2088353;28;28993;-79
2022/08/29 01:28:12;;;;;;;6.85;2.20;;;;;;;13.26;92.24;101969.63;2088806;28;43392;-79
2022/08/29 01:29:15;;;;;;;7.05;2.00;;;;;;;13.23;91.80;101969.66;2089950;28;20033;-78
2022/08/29 01:30:18;;;;;;;5.50;1.73;;;;;;;13.24;92.18;101967.84;2088446;28;39962;-79
2022/08/29 01:31:27;;;;;;;10.60;2.50;;;;;;;13.27;93.74;101975.88;2080282;28;31265;-78
2022/08/29 01:32:38;;;;;;;4.47;1.65;;;;;;;13.23;92.83;101976.84;2083651;28;25762;-79
2022/08/29 01:33:57;;;;;;;9.43;2.28;;;;;;;13.22;92.95;101975.06;2089297;28;29731;-79
2022/08/29 01:34:59;;;;;;;5.28;2.28;;;;;;;13.21;92.93;101968.81;2089641;28;22506;-78
2022/08/29 01:36:01;;;;;;;8.82;2.90;;;;;;;13.23;93.48;101968.78;2089630;28;29425;-78
2022/08/29 01:37:07;;;;;;;5.13;2.00;;;;;;;13.20;92.87;101967.03;2088356;28;29821;-79
2022/08/29 01:38:09;;;;;;;6.82;2.03;;;;;;;13.19;92.65;101973.34;2089010;28;30048;-79
2022/08/29 01:39:10;;;;;;;6.80;2.30;;;;;;;13.15;93.41;101966.22;2089202;28;28078;-79
2022/08/29 01:40:13;;;;;;;8.07;2.00;;;;;;;13.13;93.10;101968.03;2080276;28;24936;-78
2022/08/29 01:41:17;;;;;;;9.70;2.67;;;;;;;13.12;93.50;101977.03;2080429;28;33269;-79
2022/08/29 01:42:22;;;;;;;5.82;1.92;;;;;;;13.09;93.10;101969.91;2088607;28;26397;-78
2022/08/29 01:43:26;;;;;;;7.38;2.42;;;;;;;13.07;93.38;101974.41;2088286;28;31297;-78
2022/08/29 01:44:28;;;;;;;4.68;1.90;;;;;;;13.06;94.33;101974.44;2088440;28;39343;-79
2022/08/29 01:45:30;;;;;;;9.23;2.25;;;;;;;13.04;93.65;101970.88;2089527;28;23987;-78
2022/08/29 01:46:33;;;;;;;8.07;2.30;;;;;;;13.02;94.26;101967.34;2088312;28;31185;-78
2022/08/29 01:47:37;;;;;;;8.65;2.30;;;;;;;13.03;94.72;101975.38;2088380;28;35830;-78
2022/08/29 01:48:42;;;;;;;9.57;2.40;;;;;;;13.00;94.61;101970.06;2089455;28;22986;-78
2022/08/29 01:49:44;;;;;;;11.18;2.40;;;;;;;12.96;94.69;101973.72;2089840;28;20049;-79
2022/08/29 01:50:46;;;;;;;5.22;2.33;;;;;;;12.92;94.45;101962.13;2089206;28;31195;-78
2022/08/29 01:51:49;;;;;;;7.28;2.53;;;;;;;12.95;96.35;101967.44;2088396;28;20041;-79
2022/08/29 01:52:50;;;;;;;10.40;2.83;;;;;;;12.94;96.60;101971.03;2088509;28;29136;-78
2022/08/29 01:53:52;;;;;;;10.05;2.63;;;;;;;12.95;96.62;101969.25;2088341;28;26881;-78
2022/08/29 01:54:54;;;;;;;8.18;2.63;;;;;;;12.97;96.15;101972.78;2088617;28;27539;-79
2022/08/29 01:55:56;;;;;;;7.47;2.20;;;;;;;12.91;96.11;101973.78;2088744;28;41478;-78
2022/08/29 01:57:00;;;;;;;6.72;2.22;;;;;;;12.90;96.49;101971.09;2089693;28;20313;-78
2022/08/29 01:58:03;;;;;;;9.60;2.50;;;;;;;12.89;96.68;101964.84;2088504;28;32291;-78
2022/08/29 01:59:13;;;;;;;9.75;3.00;;;;;;;12.91;97.31;101964.84;2097485;28;20036;-78
2022/08/29 02:00:17;;;;;;;8.15;2.42;;;;;;;12.88;96.97;101973.81;2095981;28;22331;-78
2022/08/29 02:01:25;;;;;;;5.22;2.30;;;;;;;12.87;97.28;101969.38;2080193;28;30480;-78
2022/08/29 02:02:28;;;;;;;7.28;2.50;;;;;;;12.89;97.62;101966.66;2080149;28;32539;-78
2022/08/29 02:03:29;;;;;;;8.93;2.90;;;;;;;12.86;97.14;101975.63;2088177;28;35251;-78
2022/08/29 02:04:32;;;;;;;6.47;2.42;;;;;;;12.84;97.56;101965.84;2088000;28;35589;-78
2022/08/29 02:05:33;;;;;;;7.28;2.83;;;;;;;12.82;97.14;101973.94;2080807;28;33633;-78
2022/08/29 02:06:39;;;;;;;10.10;2.42;;;;;;;12.86;97.70;101975.63;2080683;28;29184;-78
2022/08/29 02:07:40;;;;;;;7.85;2.80;;;;;;;12.85;97.75;101968.50;2088609;28;31823;-78
2022/08/29 02:08:44;;;;;;;7.40;2.55;;;;;;;12.87;97.61;101973.88;2087896;28;28875;-79
2022/08/29 02:09:47;;;;;;;7.35;2.25;;;;;;;12.88;97.22;101972.94;2080326;28;33508;-78
2022/08/29 02:10:48;;;;;;;12.65;2.63;;;;;;;12.91;97.83;101976.47;2080659;28;21196;-79
2022/08/29 02:11:53;;;;;;;7.68;2.38;;;;;;;12.95;97.91;101975.50;2087912;28;34101;-78
2022/08/29 02:12:57;;;;;;;6.03;2.50;;;;;;;12.96;97.91;101971.91;2080056;28;24810;-79
2022/08/29 02:13:58;;;;;;;6.63;2.95;;;;;;;12.97;98.09;101970.09;2079513;28;31547;-78
2022/08/29 02:15:00;;;;;;;7.90;2.75;;;;;;;13.02;98.09;101970.91;2087803;28;34014;-79
2022/08/29 02:16:03;;;;;;;9.15;2.20;;;;;;;13.03;98.21;101972.69;2088021;28;32732;-78
2022/08/29 02:17:08;;;;;;;8.18;2.22;;;;;;;13.05;98.61;101970.00;2080637;28;36571;-79
2022/08/29 02:18:10;;;;;;;11.90;3.08;;;;;;;13.07;98.69;101960.09;2080719;28;33960;-79
2022/08/29 02:19:11;;;;;;;11.05;2.70;;;;;;;13.06;98.58;101967.25;2080370;28;31798;-79
2022/08/29 02:20:14;;;;;;;11.80;2.20;;;;;;;13.08;98.49;101961.84;2080330;28;32017;-79
2022/08/29 02:21:21;;;;;;;10.02;2.80;;;;;;;13.13;100.00;101968.03;2080759;28;32167;-79
2022/08/29 02:22:23;;;;;;;6.28;2.30;;;;;;;13.07;98.59;101968.16;2087734;28;31250;-79
2022/08/29 02:23:27;;;;;;;8.13;2.55;;;;;;;13.06;99.14;101961.00;2080254;28;20041;-79
2022/08/29 02:24:31;;;;;;;9.15;2.67;;;;;;;13.08;98.91;101964.53;2080441;28;20053;-79
2022/08/29 02:25:42;;;;;;;9.25;2.80;;;;;;;13.05;99.06;101959.22;2084592;28;36447;-79
2022/08/29 02:26:44;;;;;;;8.80;2.67;;;;;;;13.03;99.59;101961.94;2087998;28;39032;-79
2022/08/29 02:27:46;;;;;;;11.50;2.40;;;;;;;13.03;100.00;101967.31;2088339;28;30894;-80
2022/08/29 02:28:52;;;;;;;12.30;3.05;;;;;;;12.99;98.96;101968.25;2088459;28;35885;-79
2022/08/29 02:29:54;;;;;;;13.68;3.05;;;;;;;12.99;99.95;101963.78;2089153;28;26667;-79
2022/08/29 02:30:56;;;;;;;7.88;2.65;;;;;;;13.05;100.00;101967.31;2088832;28;28574;-79
2022/08/29 02:31:58;;;;;;;6.57;2.80;;;;;;;13.03;100.00;101958.34;2088922;28;25774;-79
2022/08/29 02:33:03;;;;;;;13.43;2.85;;;;;;;13.11;100.00;101967.19;2088587;28;34034;-79
2022/08/29 02:34:07;;;;;;;7.85;3.10;;;;;;;13.11;100.00;101964.50;2088959;28;28713;-79
2022/08/29 02:35:09;;;;;;;14.20;2.97;;;;;;;13.05;100.00;101964.63;2088882;28;29215;-79
2022/08/29 02:36:11;;;;;;;14.30;3.35;;;;;;;13.11;100.00;101959.13;2088564;28;35726;-79
2022/08/29 02:37:13;;;;;;;11.07;3.03;;;;;;;13.08;100.00;101967.22;2089066;28;25860;-79
2022/08/29 02:38:16;;;;;;;14.45;3.10;;;;;;;13.06;100.00;101964.56;2088742;28;32239;-79
2022/08/29 02:39:18;;;;;;;11.55;3.00;;;;;;;13.07;100.00;101965.47;2088588;28;34359;-81
2022/08/29 02:40:19;;;;;;;8.07;2.95;;;;;;;13.04;100.00;101965.50;2088511;28;34113;-81
2022/08/29 02:41:25;;;;;;;8.90;2.90;;;;;;;13.04;100.00;101970.88;2080999;28;36040;-78
2022/08/29 02:42:27;;;;;;;6.95;2.58;;;;;;;13.03;100.00;101966.41;2087205;28;20045;-76
2022/08/29 02:43:29;;;;;;;11.38;3.05;;;;;;;13.07;100.00;101957.41;2080047;28;22801;-75
2022/08/29 02:44:31;;;;;;;6.05;2.80;;;;;;;13.06;100.00;101963.69;2084215;28;24244;-73
2022/08/29 02:45:37;;;;;;;11.30;2.65;;;;;;;13.02;100.00;101962.84;2087126;28;32162;-74
2022/08/29 02:46:41;;;;;;;11.13;3.25;;;;;;;13.06;100.00;101964.56;2087902;28;28360;-78
2022/08/29 02:47:43;;;;;;;10.60;3.10;;;;;;;13.03;100.00;101964.63;2087863;28;32758;-74
2022/08/29 02:48:46;;;;;;;10.82;3.28;;;;;;;13.04;100.00;101966.38;2088197;28;35066;-74
2022/08/29 02:49:48;;;;;;;10.93;2.97;;;;;;;13.06;100.00;101966.38;2088114;28;35888;-74
2022/08/29 02:50:54;;;;;;;8.88;3.00;;;;;;;13.04;100.00;101973.56;2088155;28;28693;-76
2022/08/29 02:51:56;;;;;;;11.95;3.30;;;;;;;13.08;100.00;101961.84;2096572;28;29289;-76
2022/08/29 02:52:58;;;;;;;5.68;2.85;;;;;;;13.07;100.00;101962.78;2095821;28;36546;-75
2022/08/29 02:54:01;;;;;;;12.05;3.25;;;;;;;13.08;100.00;101964.53;2096785;28;30397;-74
2022/08/29 02:55:04;;;;;;;7.32;2.63;;;;;;;13.05;100.00;101960.13;2095588;28;33339;-73
2022/08/29 02:56:05;;;;;;;8.50;3.00;;;;;;;13.04;100.00;101957.44;2086978;28;31238;-75
2022/08/29 02:57:07;;;;;;;10.98;3.08;;;;;;;13.04;100.00;101969.06;2079845;28;28372;-76
2022/08/29 02:58:09;;;;;;;7.55;2.78;;;;;;;13.03;100.00;101958.34;2079872;28;39128;-76
2022/08/29 02:59:12;;;;;;;11.02;3.95;;;;;;;13.03;100.00;101959.25;2079497;28;39148;-75
2022/08/29 03:00:20;;;;;;;7.63;3.03;;;;;;;13.04;100.00;101960.13;2085387;28;20896;-79
2022/08/29 03:01:23;;;;;;;14.70;3.75;;;;;;;13.07;100.00;101968.16;2087849;28;35749;-77
2022/08/29 03:02:25;;;;;;;12.00;3.38;;;;;;;13.01;100.00;101958.41;2088149;28;29606;-75
2022/08/29 03:03:27;;;;;;;12.68;3.03;;;;;;;13.01;100.00;101961.09;2088789;28;20762;-75
2022/08/29 03:04:29;;;;;;;12.02;3.53;;;;;;;13.01;100.00;101968.25;2087197;28;30037;-77
2022/08/29 03:05:36;;;;;;;11.43;3.45;;;;;;;12.96;100.00;101965.66;2087472;28;37033;-76
2022/08/29 03:06:38;;;;;;;8.85;3.03;;;;;;;12.95;100.00;101962.03;2088823;28;20110;-77
2022/08/29 03:07:40;;;;;;;6.55;3.38;;;;;;;12.99;100.00;101957.50;2088179;28;35374;-76
2022/08/29 03:08:42;;;;;;;6.22;3.15;;;;;;;12.96;100.00;101968.34;2087978;28;26751;-77
2022/08/29 03:09:46;;;;;;;12.75;3.88;;;;;;;12.96;100.00;101958.47;2088180;28;34212;-76
2022/08/29 03:10:48;;;;;;;15.63;3.72;;;;;;;13.01;100.00;101957.50;2087687;28;24828;-77
2022/08/29 03:11:53;;;;;;;7.63;3.25;;;;;;;12.98;100.00;101969.19;2088705;28;20183;-76
2022/08/29 03:12:55;;;;;;;11.43;2.90;;;;;;;12.96;100.00;101971.03;2088074;28;33666;-75
2022/08/29 03:13:57;;;;;;;6.35;2.60;;;;;;;12.91;100.00;101959.47;2088085;28;28591;-74
2022/08/29 03:14:59;;;;;;;7.25;3.33;;;;;;;12.89;100.00;101954.09;2088270;28;25131;-78
2022/08/29 03:16:03;;;;;;;10.13;3.35;;;;;;;12.88;100.00;101956.81;2088272;28;30676;-76
2022/08/29 03:17:05;;;;;;;8.55;3.03;;;;;;;12.89;100.00;101955.91;2088322;28;20170;-76
2022/08/29 03:18:11;;;;;;;12.93;3.70;;;;;;;12.86;100.00;101954.13;2087971;28;39707;-74
2022/08/29 03:19:13;;;;;;;9.48;3.88;;;;;;;12.86;100.00;101948.75;2087814;28;20115;-73
2022/08/29 03:20:21;;;;;;;11.07;3.80;;;;;;;12.84;100.00;101950.59;2079903;28;26104;-75
2022/08/29 03:21:26;;;;;;;7.93;3.00;;;;;;;12.87;100.00;101952.38;2086211;28;25917;-75
2022/08/29 03:22:28;;;;;;;15.57;3.70;;;;;;;12.90;100.00;101950.50;2078360;28;30376;-75
2022/08/29 03:23:29;;;;;;;10.07;4.13;;;;;;;12.87;100.00;101947.88;2080531;28;20042;-76
2022/08/29 03:24:35;;;;;;;13.38;3.80;;;;;;;12.86;100.00;101947.88;2095479;28;26829;-75
2022/08/29 03:25:37;;;;;;;11.68;3.55;;;;;;;12.89;100.00;101947.84;2088412;28;20459;-74
2022/08/29 03:26:39;;;;;;;10.35;3.75;;;;;;;12.84;100.00;101945.22;2088051;28;28909;-75
2022/08/29 03:27:41;;;;;;;14.48;4.00;;;;;;;12.85;100.00;101949.69;2087714;28;23141;-75
2022/08/29 03:28:44;;;;;;;13.38;3.58;;;;;;;12.82;100.00;101941.66;2087771;28;20130;-78
2022/08/29 03:29:45;;;;;;;13.80;4.22;;;;;;;12.84;100.00;101942.53;2088023;28;33060;-75
2022/08/29 03:30:47;;;;;;;11.45;4.18;;;;;;;12.82;100.00;101944.34;2087260;28;28499;-74
2022/08/29 03:31:52;;;;;;;11.25;4.13;;;;;;;12.89;100.00;101950.53;2087891;28;20960;-74
2022/08/29 03:32:55;;;;;;;12.82;4.10;;;;;;;12.85;100.00;101938.94;2088151;28;20742;-75
2022/08/29 03:33:57;;;;;;;11.05;3.92;;;;;;;12.88;100.00;101949.63;2087728;28;29118;-75
2022/08/29 03:35:01;;;;;;;15.38;4.03;;;;;;;12.94;100.00;101954.03;2088131;28;22819;-81
2022/08/29 03:36:04;;;;;;;15.68;4.78;;;;;;;12.91;100.00;101957.66;2087806;28;32740;-74
2022/08/29 03:37:07;;;;;;;14.30;5.05;;;;;;;12.96;100.00;101957.59;2087965;28;24266;-76
2022/08/29 03:38:09;;;;;;;14.38;4.25;;;;;;;12.91;100.00;101948.69;2087912;28;30461;-79
2022/08/29 03:39:11;;;;;;;12.52;4.45;;;;;;;12.93;100.00;101960.31;2087952;28;25898;-76
2022/08/29 03:40:14;;;;;;;11.05;4.32;;;;;;;12.93;100.00;101963.88;2088192;28;20131;-79
2022/08/29 03:41:26;;;;;;;13.18;4.70;;;;;;;12.98;100.00;101961.13;2088111;28;26739;-80
2022/08/29 03:42:32;;;;;;;13.95;4.53;;;;;;;12.97;100.00;101959.34;2088174;28;20073;-74
2022/08/29 03:43:33;;;;;;;10.50;4.68;;;;;;;12.98;100.00;101958.44;2087866;28;25182;-74
2022/08/29 03:44:40;;;;;;;17.10;5.05;;;;;;;13.03;100.00;101955.66;2088192;28;22326;-75
2022/08/29 03:45:42;;;;;;;13.60;4.35;;;;;;;13.08;100.00;101960.06;2079787;28;20042;-76
2022/08/29 03:46:46;;;;;;;13.25;4.20;;;;;;;13.07;100.00;101955.59;2080090;28;38097;-75
2022/08/29 03:47:47;;;;;;;15.55;4.68;;;;;;;13.11;100.00;101961.81;2087255;28;25767;-77
2022/08/29 03:48:50;;;;;;;14.43;4.70;;;;;;;13.13;100.00;101955.47;2079254;28;20790;-78
2022/08/29 03:49:52;;;;;;;11.65;4.68;;;;;;;13.14;100.00;101959.06;2081003;28;20030;-80
2022/08/29 03:50:54;;;;;;;16.35;4.88;;;;;;;13.19;100.00;101957.19;2104604;28;20033;-76
2022/08/29 03:51:57;;;;;;;15.20;5.07;;;;;;;13.26;100.00;101950.78;2096241;28;24791;-79
2022/08/29 03:52:59;;;;;;;17.65;4.90;;;;;;;13.28;100.00;101957.03;2095750;28;30846;-75
2022/08/29 03:54:01;;;;;;;13.25;4.82;;;;;;;13.29;100.00;101953.41;2095909;28;26380;-80
2022/08/29 03:55:05;;;;;;;18.55;4.82;;;;;;;13.32;100.00;101960.59;2095238;28;29071;-77
2022/08/29 03:56:08;;;;;;;18.75;4.97;;;;;;;13.38;100.00;101957.78;2087584;28;33803;-75
2022/08/29 03:57:10;;;;;;;12.52;4.38;;;;;;;13.38;100.00;101959.59;2087500;28;24992;-81
2022/08/29 03:58:12;;;;;;;12.25;4.75;;;;;;;13.38;100.00;101956.88;2087192;28;25206;-84
2022/08/29 03:59:18;;;;;;;13.35;4.75;;;;;;;13.39;100.00;101959.56;2088305;28;20038;-82
2022/08/29 04:00:20;;;;;;;13.45;4.80;;;;;;;13.40;100.00;101961.31;2088022;28;26421;-79
2022/08/29 04:01:25;;;;;;;13.90;5.10;;;;;;;13.44;100.00;101956.75;2088209;28;24294;-78
2022/08/29 04:02:27;;;;;;;19.58;5.80;;;;;;;13.45;100.00;101961.25;2087998;28;30620;-79
2022/08/29 04:03:31;;;;;;;15.65;4.85;;;;;;;13.47;100.00;101962.97;2088836;28;20270;-81
2022/08/29 04:05:53;;;;;;;11.90;4.07;;;;;;;13.45;100.00;101958.56;2088402;28;28284;-81
2022/08/29 04:06:55;;;;;;;15.02;4.35;;;;;;;13.48;100.00;101961.19;2088820;28;20038;-81
2022/08/29 04:07:58;;;;;;;13.77;4.80;;;;;;;13.53;100.00;101967.34;2088834;28;20051;-80
2022/08/29 04:09:02;;;;;;;18.20;4.68;;;;;;;13.51;100.00;101962.03;2087928;28;20994;-80
2022/08/29 04:10:07;;;;;;;13.80;4.32;;;;;;;13.53;100.00;101956.59;2087589;28;28367;-80
2022/08/29 04:11:14;;;;;;;16.38;5.32;;;;;;;13.57;100.00;101961.00;2087245;28;35377;-79
2022/08/29 04:12:16;;;;;;;18.88;4.93;;;;;;;13.58;100.00;101959.22;2087709;28;34581;-78
2022/08/29 04:13:19;;;;;;;15.80;5.47;;;;;;;13.55;100.00;101960.16;2088286;28;20046;-78
2022/08/29 04:14:21;;;;;;;13.40;5.25;;;;;;;13.60;100.00;101960.06;2088439;28;25877;-78
2022/08/29 04:15:26;;;;;;;12.18;4.68;;;;;;;13.57;100.00;101958.31;2088238;28;25069;-79
2022/08/29 04:16:28;;;;;;;15.23;4.30;;;;;;;13.60;100.00;101962.75;2088108;28;31019;-78
2022/08/29 04:17:32;;;;;;;12.90;4.85;;;;;;;13.61;100.00;101961.84;2088262;28;31763;-80
2022/08/29 04:18:33;;;;;;;15.43;5.40;;;;;;;13.59;100.00;101967.25;2087412;28;20164;-82
2022/08/29 04:19:36;;;;;;;14.07;5.00;;;;;;;13.61;100.00;101968.09;2087977;28;23313;-80
2022/08/29 04:20:43;;;;;;;9.63;3.97;;;;;;;13.61;100.00;101969.91;2087960;28;33326;-79
2022/08/29 04:21:47;;;;;;;11.13;4.63;;;;;;;13.62;100.00;101974.38;2088287;28;29162;-80
2022/08/29 04:22:49;;;;;;;13.25;4.53;;;;;;;13.64;100.00;101965.38;2088424;28;22447;-79
2022/08/29 04:23:51;;;;;;;17.38;5.20;;;;;;;13.67;100.00;101973.34;2088769;28;20085;-81
2022/08/29 04:24:53;;;;;;;16.60;5.25;;;;;;;13.68;100.00;101976.97;2088412;28;25168;-80
2022/08/29 04:25:55;;;;;;;16.35;5.72;;;;;;;13.71;100.00;101977.78;2088338;28;29273;-81
2022/08/29 04:27:16;;;;;;;14.32;5.18;;;;;;;13.72;100.00;101974.16;2088659;28;20888;-81
2022/08/29 04:28:18;;;;;;;16.15;5.43;;;;;;;13.75;100.00;101970.53;2088004;28;28281;-79
2022/08/29 04:29:20;;;;;;;16.33;5.05;;;;;;;13.75;100.00;101968.72;2088363;28;20041;-79
2022/08/29 04:30:24;;;;;;;10.48;4.85;;;;;;;13.77;100.00;101975.91;2088412;28;24915;-80
2022/08/29 04:31:26;;;;;;;8.00;3.80;;;;;;;13.78;100.00;101966.88;2088171;28;28075;-79
2022/08/29 04:32:27;;;;;;;14.23;5.25;;;;;;;13.80;100.00;101978.50;2088304;28;20046;-79
2022/08/29 04:33:30;;;;;;;13.35;5.28;;;;;;;13.80;100.00;101975.81;2088176;28;25660;-80
2022/08/29 04:34:31;;;;;;;10.23;4.82;;;;;;;13.78;100.00;101969.56;2087997;28;31395;-79
2022/08/29 04:35:36;;;;;;;12.68;4.50;;;;;;;13.79;100.00;101976.75;2087706;28;24693;-81
2022/08/29 04:36:40;;;;;;;13.88;5.15;;;;;;;13.75;100.00;101978.63;2087832;28;26240;-79
2022/08/29 04:37:43;;;;;;;10.00;4.80;;;;;;;13.75;100.00;101978.63;2087225;28;36931;-81
2022/08/29 04:38:45;;;;;;;11.85;4.55;;;;;;;13.74;100.00;101976.81;2087652;28;29445;-80
2022/08/29 04:39:47;;;;;;;15.45;5.63;;;;;;;13.73;100.00;101975.94;2087912;28;26485;-79
2022/08/29 04:40:48;;;;;;;16.85;5.47;;;;;;;13.72;100.00;101974.16;2095571;28;26599;-79
2022/08/29 04:41:50;;;;;;;13.60;4.72;;;;;;;13.70;100.00;101984.06;2087806;28;36279;-78
2022/08/29 04:42:52;;;;;;;14.98;4.82;;;;;;;13.67;100.00;101976.03;2088217;28;24222;-78
2022/08/29 04:43:54;;;;;;;14.25;4.38;;;;;;;13.65;100.00;101977.88;2088026;28;23626;-78
2022/08/29 04:44:56;;;;;;;12.20;5.13;;;;;;;13.66;100.00;101976.97;2088023;28;30542;-78
2022/08/29 04:45:59;;;;;;;13.43;4.25;;;;;;;13.63;100.00;101979.72;2088502;28;20077;-78
2022/08/29 04:47:00;;;;;;;11.35;4.63;;;;;;;13.61;100.00;101981.56;2088023;28;30066;-78
2022/08/29 04:48:03;;;;;;;11.48;5.00;;;;;;;13.62;100.00;101983.34;2088807;28;24284;-79
2022/08/29 04:49:07;;;;;;;15.57;5.57;;;;;;;13.63;100.00;101985.09;2087427;28;29817;-78
2022/08/29 04:50:14;;;;;;;12.82;4.63;;;;;;;13.63;100.00;101985.09;2087485;28;25710;-78
2022/08/29 04:51:16;;;;;;;11.50;4.57;;;;;;;13.66;100.00;101982.38;2079807;28;20934;-78
2022/08/29 04:52:18;;;;;;;13.82;4.68;;;;;;;13.67;100.00;101980.56;2079337;28;23015;-79
2022/08/29 04:53:19;;;;;;;10.27;4.30;;;;;;;13.68;100.00;101979.66;2088162;28;27113;-80
2022/08/29 04:54:24;;;;;;;13.13;4.57;;;;;;;13.68;100.00;101976.97;2088397;28;20045;-80
2022/08/29 04:55:26;;;;;;;11.05;4.53;;;;;;;13.69;100.00;101978.72;2088105;28;25174;-80
2022/08/29 04:56:27;;;;;;;9.43;4.35;;;;;;;13.71;100.00;101980.47;2087749;28;34299;-80
2022/08/29 04:57:29;;;;;;;13.13;4.68;;;;;;;13.74;100.00;101974.13;2088453;28;22700;-80